메인 페이지
METAR-TAF:

METAR-TAF

공항 :

양곤 국제공항

양곤, 미얀마

위도: 16-46N, 경도: 096-10E, 고도: 14m

현재 날씨관측

예보는 10분 전, 22:30시(UTC)에 발표되었습니다.
2kt
온도 24°C
습도 94%
기압 1008 hPa
시정: 6000m

METAR: VYYY 312230Z 10002KT 6000 NSC 24/23 Q1008 NOSIG

시각: 05:10 (22:40 UTC)

예보

예보는 5 시간 40분 전, 17:00시(UTC)에 발표되었습니다.
예보 대상 시간: 31일 18시부터 01일 18시까지 (UTC)
서남서8kt
시정: 8000m
전환 중
31일 18시부터 31일 20시까지 (UTC)
서남서8kt
일시적
01일 00시부터 01일 02시까지 (UTC)
2kt
시정: 3000m
박무

TAF: VYYY 311700Z 3118/0118 24008KT 8000 NSC BECMG 3118/3120 24008KT TEMPO 0100/0102 18002KT 3000 BR

4,000개 이상의 공항 관측 자료 및 예보 (METAR 및 TAF 보고).

지도상에서 검색 가능한 기상관측소가 노란 점과 빨간 점으로 표시되어 있습니다.

기상관측소 명을 보려면 표시 위로 마우스를 이동하세요.

날씨 관측과 예보를 보려면 클릭하세요.

지도 변경 : 확대하려면 엑스 표시가 있는 녹색 버튼, 축소하려면 빼기 표시가 있는 녹색 버튼, 다음 페이지의 지도를 보려면 녹색 화살표를 클릭하세요.


METAR-TAF: